Time;durP1;ratioP1;P1;durP2;ratioP2;P2;SDS_P1;SDS_P2;PMS_P1;PMS_P2;Temp;Humidity;BMP_temperature;BMP_pressure;BME280_temperature;BME280_humidity;BME280_pressure;Samples;Min_cycle;Max_cycle;Signal;HPM_P1;HPM_P2
2022/07/09 00:00:10;;;;;;;3.22;1.80;;;19.40;79.70;;;;;;5056682;28;20045;-68
2022/07/09 00:02:37;;;;;;;7.15;2.80;;;19.30;80.10;;;;;;5056268;28;20041;-66
2022/07/09 00:05:03;;;;;;;6.10;2.00;;;19.30;80.50;;;;;;5056651;28;20045;-70
2022/07/09 00:07:29;;;;;;;3.45;2.03;;;19.30;80.50;;;;;;5056504;28;20068;-68
2022/07/09 00:09:54;;;;;;;6.90;1.73;;;19.20;80.90;;;;;;5056546;28;20110;-66
2022/07/09 00:12:20;;;;;;;4.40;1.88;;;19.20;80.60;;;;;;5056691;28;20504;-68
2022/07/09 00:14:46;;;;;;;5.03;1.92;;;19.00;81.40;;;;;;5056425;28;20041;-70
2022/07/09 00:17:12;;;;;;;4.75;2.17;;;19.00;81.80;;;;;;5056402;28;20094;-70
2022/07/09 00:19:38;;;;;;;6.60;1.92;;;19.00;81.50;;;;;;5056617;28;20415;-69
2022/07/09 00:22:05;;;;;;;4.97;2.20;;;18.90;82.00;;;;;;5056403;28;20056;-67
2022/07/09 00:24:31;;;;;;;11.02;2.00;;;18.80;82.20;;;;;;5056337;28;20128;-74
2022/07/09 00:26:57;;;;;;;11.75;2.38;;;18.70;81.60;;;;;;5055021;28;20037;-67
2022/07/09 00:29:23;;;;;;;4.93;2.08;;;18.80;81.90;;;;;;5056299;28;20436;-68
2022/07/09 00:31:49;;;;;;;4.72;2.17;;;18.70;82.00;;;;;;5056202;28;20037;-67
2022/07/09 00:34:15;;;;;;;4.07;2.30;;;18.60;82.80;;;;;;5056218;28;20106;-72
2022/07/09 00:36:40;;;;;;;4.50;1.75;;;18.60;82.50;;;;;;5056424;28;20048;-69
2022/07/09 00:39:06;;;;;;;5.90;2.03;;;18.50;82.70;;;;;;5056072;28;20194;-70
2022/07/09 00:41:32;;;;;;;6.93;1.80;;;18.60;82.90;;;;;;5055961;28;20033;-70
2022/07/09 00:43:58;;;;;;;3.65;1.95;;;18.50;83.10;;;;;;5055914;28;20055;-68
2022/07/09 00:46:23;;;;;;;3.80;2.03;;;18.40;83.10;;;;;;5054686;28;20074;-71
2022/07/09 00:48:49;;;;;;;6.30;2.30;;;18.40;83.60;;;;;;5056022;28;20496;-71
2022/07/09 00:51:17;;;;;;;7.70;2.58;;;18.40;83.00;;;;;;5055979;28;20435;-69
2022/07/09 00:53:45;;;;;;;7.85;1.90;;;18.40;83.30;;;;;;5055912;28;20095;-69
2022/07/09 00:56:12;;;;;;;5.35;2.13;;;18.30;83.30;;;;;;5054707;28;20125;-69
2022/07/09 00:58:39;;;;;;;3.78;2.08;;;18.20;83.50;;;;;;5055517;28;20045;-69
2022/07/09 01:01:06;;;;;;;6.40;2.35;;;18.30;83.60;;;;;;5055239;28;20029;-68
2022/07/09 01:03:32;;;;;;;4.88;1.85;;;18.20;83.90;;;;;;5055582;28;20051;-68
2022/07/09 01:05:58;;;;;;;4.68;2.00;;;18.10;84.10;;;;;;5055642;28;20041;-70
2022/07/09 01:08:25;;;;;;;6.07;2.30;;;18.00;84.50;;;;;;5062082;28;20044;-69
2022/07/09 01:10:53;;;;;;;7.18;2.05;;;18.10;84.00;;;;;;5075506;28;20399;-67
2022/07/09 01:13:19;;;;;;;4.88;2.42;;;17.90;84.70;;;;;;5075352;28;20486;-70
2022/07/09 01:15:45;;;;;;;5.78;2.20;;;18.00;84.80;;;;;;5075470;28;20123;-67
2022/07/09 01:18:11;;;;;;;4.47;1.90;;;17.90;84.60;;;;;;5075803;28;20499;-67
2022/07/09 01:20:37;;;;;;;13.18;2.45;;;18.00;84.80;;;;;;5075395;28;20468;-67
2022/07/09 01:23:03;;;;;;;3.60;1.83;;;17.90;84.90;;;;;;5075275;28;20143;-67
2022/07/09 01:25:45;;;;;;;5.38;2.20;;;17.90;85.10;;;;;;5075170;28;20119;-67
2022/07/09 01:28:11;;;;;;;4.53;2.00;;;17.90;86.00;;;;;;5075160;28;20071;-69
2022/07/09 01:30:40;;;;;;;6.45;2.55;;;17.80;85.90;;;;;;5074942;28;20043;-67
2022/07/09 01:33:07;;;;;;;6.78;2.35;;;17.80;86.20;;;;;;5074950;28;20139;-67
2022/07/09 01:35:33;;;;;;;6.63;2.00;;;17.80;85.50;;;;;;5075007;28;20032;-66
2022/07/09 01:37:59;;;;;;;5.00;2.63;;;17.80;85.80;;;;;;5074998;28;20407;-66
2022/07/09 01:40:25;;;;;;;10.70;2.10;;;17.70;86.00;;;;;;5074602;28;20043;-67
2022/07/09 01:42:50;;;;;;;3.08;2.10;;;17.60;86.30;;;;;;5074778;28;20439;-67
2022/07/09 01:45:17;;;;;;;5.20;1.90;;;17.70;86.60;;;;;;5074901;28;20473;-67
2022/07/09 01:47:43;;;;;;;5.85;1.88;;;17.60;86.90;;;;;;5074802;28;20036;-68
2022/07/09 01:50:10;;;;;;;6.82;2.38;;;17.70;86.60;;;;;;5074708;28;20123;-67
2022/07/09 01:52:36;;;;;;;3.75;2.08;;;17.60;86.70;;;;;;5074730;28;20154;-67
2022/07/09 01:55:03;;;;;;;3.85;2.20;;;17.60;86.90;;;;;;5066622;28;20053;-69
2022/07/09 01:57:28;;;;;;;5.28;1.92;;;17.50;87.20;;;;;;5054471;28;20045;-68
2022/07/09 01:59:54;;;;;;;6.80;2.45;;;17.40;88.30;;;;;;5054622;28;20040;-67
2022/07/09 02:02:20;;;;;;;8.57;2.20;;;17.40;88.10;;;;;;5054578;28;20049;-69
2022/07/09 02:04:46;;;;;;;3.65;1.70;;;17.40;87.60;;;;;;5053033;28;20076;-70
2022/07/09 02:07:13;;;;;;;4.00;2.10;;;17.40;87.60;;;;;;5054315;28;20495;-70
2022/07/09 02:09:39;;;;;;;8.52;2.33;;;17.40;88.00;;;;;;5054458;28;20064;-69
2022/07/09 02:12:06;;;;;;;6.45;2.00;;;17.40;88.50;;;;;;5054451;28;20041;-70
2022/07/09 02:14:32;;;;;;;5.30;2.40;;;17.40;88.30;;;;;;5052555;28;20071;-71
2022/07/09 02:16:58;;;;;;;4.28;1.98;;;17.40;88.40;;;;;;5054354;28;20068;-69
2022/07/09 02:19:24;;;;;;;3.88;1.88;;;17.30;88.80;;;;;;5054415;28;20071;-69
2022/07/09 02:21:50;;;;;;;7.50;2.40;;;17.30;88.70;;;;;;5054180;28;20048;-69
2022/07/09 02:24:16;;;;;;;7.22;2.45;;;17.30;89.00;;;;;;5052673;28;20084;-67
2022/07/09 02:26:41;;;;;;;7.35;2.42;;;17.20;89.20;;;;;;5054050;28;20116;-67
2022/07/09 02:29:07;;;;;;;8.07;2.38;;;17.30;89.20;;;;;;5054072;28;20123;-66
2022/07/09 02:31:33;;;;;;;5.88;2.15;;;17.30;89.20;;;;;;5053818;28;20044;-66
2022/07/09 02:33:59;;;;;;;7.35;2.25;;;17.20;89.30;;;;;;5054038;28;20040;-66
2022/07/09 02:36:25;;;;;;;6.70;2.15;;;17.30;89.00;;;;;;5054208;28;20049;-66
2022/07/09 02:38:50;;;;;;;9.07;2.00;;;17.30;89.10;;;;;;5053931;28;20052;-66
2022/07/09 02:41:16;;;;;;;5.20;2.13;;;17.20;88.80;;;;;;5054007;28;20563;-66
2022/07/09 02:43:45;;;;;;;4.47;1.80;;;17.20;89.00;;;;;;5053883;28;20504;-66
2022/07/09 02:46:11;;;;;;;18.00;2.85;;;17.20;89.20;;;;;;5054136;28;20059;-66
2022/07/09 02:48:37;;;;;;;4.35;2.13;;;17.10;89.50;;;;;;5054011;28;20484;-66
2022/07/09 02:51:04;;;;;;;6.32;2.25;;;17.10;89.20;;;;;;5053723;28;20083;-68
2022/07/09 02:53:30;;;;;;;7.13;2.17;;;17.10;89.60;;;;;;5053912;28;20037;-69
2022/07/09 02:55:56;;;;;;;4.22;1.60;;;17.00;90.00;;;;;;5053764;28;20033;-68
2022/07/09 02:58:21;;;;;;;5.35;2.40;;;17.00;89.60;;;;;;5053897;28;20133;-68
2022/07/09 03:00:47;;;;;;;7.53;1.83;;;17.10;89.20;;;;;;5053882;28;20045;-68
2022/07/09 03:03:14;;;;;;;4.82;2.47;;;17.10;89.60;;;;;;5053970;28;20486;-68
2022/07/09 03:05:39;;;;;;;7.72;2.10;;;17.00;89.80;;;;;;5053710;28;20041;-70
2022/07/09 03:08:05;;;;;;;8.55;2.05;;;17.00;89.50;;;;;;5053726;28;20169;-67
2022/07/09 03:10:31;;;;;;;5.93;1.73;;;17.00;89.90;;;;;;5053746;28;20091;-70
2022/07/09 03:12:57;;;;;;;7.47;2.10;;;17.00;89.80;;;;;;5053660;28;20128;-68
2022/07/09 03:15:23;;;;;;;5.28;2.13;;;17.00;89.70;;;;;;5053466;28;20061;-70
2022/07/09 03:17:49;;;;;;;7.00;2.20;;;17.00;89.80;;;;;;5053580;28;20045;-68
2022/07/09 03:20:15;;;;;;;4.53;2.03;;;17.00;90.00;;;;;;5053414;28;20021;-68
2022/07/09 03:22:41;;;;;;;6.00;1.98;;;17.00;89.70;;;;;;5053561;28;20040;-68
2022/07/09 03:25:08;;;;;;;6.32;2.03;;;17.00;90.00;;;;;;5055081;28;20121;-68
2022/07/09 03:27:35;;;;;;;6.35;2.13;;;16.90;90.00;;;;;;5058200;28;20458;-68
2022/07/09 03:30:01;;;;;;;3.28;1.70;;;16.90;90.00;;;;;;5076942;28;20078;-68
2022/07/09 03:32:27;;;;;;;7.35;2.45;;;16.90;90.00;;;;;;5077194;28;20039;-69
2022/07/09 03:34:53;;;;;;;3.53;2.20;;;16.80;90.10;;;;;;5077134;28;20033;-67
2022/07/09 03:37:19;;;;;;;4.20;1.75;;;16.80;90.00;;;;;;5077262;28;20096;-68
2022/07/09 03:39:45;;;;;;;8.50;2.05;;;16.70;90.20;;;;;;5077367;28;20040;-68
2022/07/09 03:42:12;;;;;;;6.80;1.80;;;16.80;90.10;;;;;;5077361;28;20041;-69
2022/07/09 03:44:38;;;;;;;5.55;1.77;;;16.80;90.10;;;;;;5077176;28;20048;-67
2022/07/09 03:47:05;;;;;;;5.10;2.05;;;16.80;90.10;;;;;;5077290;28;20575;-68
2022/07/09 03:49:31;;;;;;;6.82;1.98;;;16.80;90.20;;;;;;5076972;28;20040;-67
2022/07/09 03:51:56;;;;;;;7.70;2.00;;;16.80;90.10;;;;;;5077116;28;20042;-68
2022/07/09 03:54:23;;;;;;;10.85;1.90;;;16.80;90.10;;;;;;5076776;28;20036;-68
2022/07/09 03:56:49;;;;;;;5.15;1.75;;;16.80;90.10;;;;;;5076777;28;20139;-67
2022/07/09 03:59:15;;;;;;;10.18;2.50;;;16.80;90.00;;;;;;5076903;28;20033;-67
2022/07/09 04:01:41;;;;;;;4.80;1.75;;;16.80;89.70;;;;;;5077065;28;20051;-67
2022/07/09 04:04:07;;;;;;;3.42;1.52;;;16.80;90.00;;;;;;5076525;28;20041;-66
2022/07/09 04:06:33;;;;;;;4.82;2.00;;;16.80;90.00;;;;;;5076738;28;20097;-66
2022/07/09 04:09:04;;;;;;;3.55;1.73;;;16.70;90.10;;;;;;5076914;28;20039;-69
2022/07/09 04:11:33;;;;;;;7.10;1.63;;;16.80;90.10;;;;;;5076785;28;20491;-69
2022/07/09 04:14:00;;;;;;;4.13;1.88;;;16.70;90.00;;;;;;5076635;28;20052;-70
2022/07/09 04:16:26;;;;;;;5.70;2.00;;;16.80;90.20;;;;;;5076547;28;20040;-67
2022/07/09 04:18:52;;;;;;;3.50;1.42;;;16.80;90.10;;;;;;5076657;28;20044;-67
2022/07/09 04:21:17;;;;;;;4.05;1.50;;;16.80;90.20;;;;;;5075090;28;20043;-67
2022/07/09 04:23:43;;;;;;;6.10;1.70;;;16.70;90.30;;;;;;5076594;28;20084;-67
2022/07/09 04:26:09;;;;;;;4.00;1.88;;;16.70;90.40;;;;;;5076612;28;20090;-66
2022/07/09 04:28:37;;;;;;;7.07;2.00;;;16.70;90.50;;;;;;5076351;28;20054;-67
2022/07/09 04:31:02;;;;;;;4.95;1.85;;;16.70;90.40;;;;;;5075978;28;20071;-67
2022/07/09 04:33:28;;;;;;;4.57;1.92;;;16.70;90.70;;;;;;5076238;28;20461;-68
2022/07/09 04:35:54;;;;;;;4.28;1.45;;;16.60;90.30;;;;;;5075891;28;20036;-67
2022/07/09 04:38:20;;;;;;;3.15;1.20;;;16.60;90.50;;;;;;5076164;28;20123;-67
2022/07/09 04:40:45;;;;;;;2.50;1.40;;;16.70;90.20;;;;;;5076074;28;20037;-67
2022/07/09 04:43:11;;;;;;;4.75;1.55;;;16.50;90.30;;;;;;5076001;28;20701;-67
2022/07/09 04:45:37;;;;;;;4.05;1.35;;;16.50;90.60;;;;;;5075957;28;20040;-69
2022/07/09 04:48:03;;;;;;;4.65;1.60;;;16.50;90.60;;;;;;5074628;28;20048;-70
2022/07/09 04:50:29;;;;;;;8.05;1.45;;;16.60;90.70;;;;;;5076032;28;20045;-69
2022/07/09 04:52:54;;;;;;;4.50;1.60;;;16.70;90.00;;;;;;5075961;28;20045;-67
2022/07/09 04:55:21;;;;;;;6.68;2.03;;;16.80;90.60;;;;;;5075838;28;20135;-68
2022/07/09 04:57:47;;;;;;;6.05;2.40;;;16.70;90.80;;;;;;5075642;28;20491;-68
2022/07/09 05:00:15;;;;;;;4.57;1.40;;;16.70;90.50;;;;;;5075535;28;20058;-68
2022/07/09 05:02:42;;;;;;;5.43;1.98;;;16.70;90.80;;;;;;5075638;28;20090;-67
2022/07/09 05:05:08;;;;;;;4.10;1.55;;;16.70;90.50;;;;;;5074463;28;20148;-68
2022/07/09 05:07:34;;;;;;;5.13;1.92;;;16.80;90.90;;;;;;5075775;28;20032;-70
2022/07/09 05:10:04;;;;;;;5.57;1.70;;;16.90;90.50;;;;;;5075617;28;20483;-69
2022/07/09 05:12:30;;;;;;;7.03;1.80;;;17.00;90.40;;;;;;5075767;28;20058;-67
2022/07/09 05:14:56;;;;;;;5.18;1.88;;;17.20;89.50;;;;;;5075542;28;20036;-69
2022/07/09 05:17:23;;;;;;;4.22;1.88;;;17.40;88.20;;;;;;5075589;28;20111;-69
2022/07/09 05:19:49;;;;;;;5.35;1.45;;;17.50;88.90;;;;;;5075275;28;20110;-69
2022/07/09 05:22:15;;;;;;;9.52;2.25;;;17.60;88.70;;;;;;5075251;28;20071;-69
2022/07/09 05:24:41;;;;;;;5.68;1.63;;;17.70;89.00;;;;;;5075205;28;20495;-69
2022/07/09 05:27:09;;;;;;;5.70;2.20;;;17.90;87.60;;;;;;5075172;28;20036;-69
2022/07/09 05:29:38;;;;;;;4.40;1.77;;;18.10;87.50;;;;;;5074993;28;20067;-66
2022/07/09 05:32:04;;;;;;;5.22;1.77;;;18.20;87.90;;;;;;5071311;28;20040;-68
2022/07/09 05:34:30;;;;;;;4.95;1.80;;;18.60;88.50;;;;;;5074738;28;20036;-70
2022/07/09 05:36:56;;;;;;;6.90;1.75;;;18.90;89.30;;;;;;5074069;28;20369;-69
2022/07/09 05:39:22;;;;;;;3.13;1.83;;;19.10;89.60;;;;;;5057552;28;20516;-70
2022/07/09 05:41:48;;;;;;;7.25;2.00;;;19.10;91.40;;;;;;5053171;28;20033;-69
2022/07/09 05:44:14;;;;;;;6.60;1.92;;;18.90;91.60;;;;;;5053709;28;20052;-69
2022/07/09 05:46:40;;;;;;;4.63;2.03;;;18.70;91.60;;;;;;5054090;28;20060;-69
2022/07/09 05:49:06;;;;;;;4.05;1.88;;;18.60;92.20;;;;;;5053832;28;20051;-68
2022/07/09 05:51:32;;;;;;;5.13;1.90;;;18.70;92.30;;;;;;5055005;28;20032;-68
2022/07/09 05:53:58;;;;;;;3.67;1.80;;;18.70;91.40;;;;;;5054822;28;20049;-68
2022/07/09 05:56:24;;;;;;;5.40;1.73;;;18.50;91.20;;;;;;5054811;28;20415;-68
2022/07/09 05:58:50;;;;;;;6.38;1.90;;;18.30;90.50;;;;;;5054726;28;20048;-67
2022/07/09 06:01:16;;;;;;;8.38;2.42;;;18.30;90.40;;;;;;5054717;28;20083;-68
2022/07/09 06:03:42;;;;;;;8.23;1.95;;;18.30;90.90;;;;;;5054660;28;20087;-68
2022/07/09 06:06:09;;;;;;;5.55;2.17;;;18.30;90.90;;;;;;5054629;28;20032;-69
2022/07/09 06:08:35;;;;;;;5.68;1.67;;;18.40;90.60;;;;;;5054551;28;20051;-69
2022/07/09 06:11:01;;;;;;;7.43;1.98;;;18.50;91.30;;;;;;5054362;28;20110;-68
2022/07/09 06:13:27;;;;;;;5.57;2.20;;;18.60;90.70;;;;;;5054435;28;20496;-67
2022/07/09 06:15:53;;;;;;;5.15;2.28;;;18.50;91.40;;;;;;5054556;28;20455;-67
2022/07/09 06:18:18;;;;;;;7.32;2.10;;;18.80;91.30;;;;;;5054345;28;20496;-70
2022/07/09 06:20:45;;;;;;;3.13;1.70;;;18.90;91.90;;;;;;5054249;28;20043;-67
2022/07/09 06:23:11;;;;;;;6.60;2.38;;;18.70;91.20;;;;;;5054225;28;20045;-69
2022/07/09 06:25:38;;;;;;;4.90;1.60;;;18.60;91.10;;;;;;5054037;28;20415;-67
2022/07/09 06:28:04;;;;;;;8.73;1.80;;;18.70;90.70;;;;;;5053974;28;20039;-69
2022/07/09 06:30:31;;;;;;;4.97;1.98;;;18.80;90.90;;;;;;5054023;28;20555;-77
2022/07/09 06:32:57;;;;;;;4.78;1.85;;;18.70;90.00;;;;;;5052586;28;20048;-70
2022/07/09 06:35:23;;;;;;;5.60;1.70;;;18.50;90.90;;;;;;5054048;28;20072;-68
2022/07/09 06:37:48;;;;;;;4.28;1.75;;;18.60;91.40;;;;;;5054076;28;20037;-67
2022/07/09 06:40:14;;;;;;;8.38;2.30;;;18.50;91.40;;;;;;5053910;28;20098;-69
2022/07/09 06:42:40;;;;;;;4.78;1.85;;;18.60;91.00;;;;;;5053684;28;20063;-67
2022/07/09 06:45:07;;;;;;;8.68;1.95;;;18.90;91.30;;;;;;5053644;28;20387;-66
2022/07/09 06:47:33;;;;;;;6.18;2.10;;;19.20;91.80;;;;;;5063669;28;20040;-68
2022/07/09 06:49:59;;;;;;;8.60;2.15;;;19.00;90.40;;;;;;5073810;28;20066;-68
2022/07/09 06:52:25;;;;;;;10.07;2.17;;;19.10;90.90;;;;;;5073800;28;20033;-68
2022/07/09 06:54:50;;;;;;;4.35;1.70;;;19.10;91.50;;;;;;5073548;28;20041;-68
2022/07/09 06:57:17;;;;;;;4.22;2.17;;;19.20;91.50;;;;;;5073692;28;20093;-65
2022/07/09 06:59:45;;;;;;;4.15;1.95;;;19.10;92.60;;;;;;5074951;28;20040;-75
2022/07/09 07:02:11;;;;;;;7.20;1.83;;;19.40;91.70;;;;;;5077968;28;20067;-76
2022/07/09 07:04:37;;;;;;;8.20;1.92;;;19.40;91.00;;;;;;5076767;28;20101;-65
2022/07/09 07:07:04;;;;;;;7.57;2.45;;;19.40;91.50;;;;;;5077994;28;20472;-64
2022/07/09 07:09:30;;;;;;;10.85;2.60;;;19.60;91.20;;;;;;5077826;28;20107;-69
2022/07/09 07:11:56;;;;;;;6.30;1.90;;;20.00;91.50;;;;;;5077862;28;20051;-75
2022/07/09 07:14:22;;;;;;;10.82;1.90;;;20.30;90.90;;;;;;5077836;28;20036;-74
2022/07/09 07:16:48;;;;;;;7.35;2.00;;;20.70;93.60;;;;;;5077776;28;20094;-65
2022/07/09 07:19:13;;;;;;;5.60;2.33;;;20.70;90.50;;;;;;5077839;28;20048;-73
2022/07/09 07:21:39;;;;;;;7.00;2.13;;;21.10;91.80;;;;;;5077691;28;20047;-73
2022/07/09 07:24:06;;;;;;;8.05;2.00;;;21.50;89.30;;;;;;5077276;28;20401;-74
2022/07/09 07:26:33;;;;;;;5.00;1.55;;;21.60;88.80;;;;;;5077448;28;20053;-72
2022/07/09 07:28:59;;;;;;;8.20;2.25;;;21.60;89.50;;;;;;5077482;28;20040;-73
2022/07/09 07:31:25;;;;;;;6.28;1.77;;;22.00;89.00;;;;;;5077503;28;20051;-73
2022/07/09 07:33:51;;;;;;;7.07;1.67;;;22.20;91.50;;;;;;5077347;28;20044;-73
2022/07/09 07:36:17;;;;;;;4.47;2.33;;;22.50;87.00;;;;;;5077350;28;20162;-65
2022/07/09 07:38:45;;;;;;;8.65;2.65;;;22.40;90.20;;;;;;5077326;28;20040;-71
2022/07/09 07:41:12;;;;;;;7.85;2.17;;;22.50;88.40;;;;;;5077314;28;20041;-73
2022/07/09 07:43:38;;;;;;;4.43;2.10;;;22.30;88.50;;;;;;5075949;28;21061;-75
2022/07/09 07:46:04;;;;;;;5.25;2.03;;;;;;;;;;5077288;28;20114;-74
2022/07/09 07:48:30;;;;;;;5.53;1.92;;;22.70;89.00;;;;;;5077306;28;20071;-78
2022/07/09 07:50:56;;;;;;;4.28;1.65;;;22.90;87.60;;;;;;5077095;28;20545;-74
2022/07/09 07:53:23;;;;;;;7.22;2.03;;;23.00;87.30;;;;;;5076845;28;20498;-66
2022/07/09 07:55:50;;;;;;;12.85;2.25;;;23.40;89.60;;;;;;5076928;28;20628;-65
2022/07/09 07:58:15;;;;;;;6.55;1.85;;;23.30;88.70;;;;;;5076874;28;20093;-65
2022/07/09 08:00:41;;;;;;;7.95;2.17;;;23.60;91.10;;;;;;5076987;28;20040;-67
2022/07/09 08:03:07;;;;;;;6.20;2.05;;;23.60;89.90;;;;;;5074907;28;20111;-77
2022/07/09 08:05:33;;;;;;;5.75;1.77;;;23.80;88.00;;;;;;5056800;28;20037;-66
2022/07/09 08:07:59;;;;;;;11.48;1.75;;;23.90;86.10;;;;;;5055362;28;20098;-66
2022/07/09 08:10:25;;;;;;;5.95;1.85;;;24.10;90.10;;;;;;5056580;28;20395;-66
2022/07/09 08:12:51;;;;;;;7.75;2.33;;;24.30;89.70;;;;;;5055744;28;20033;-68
2022/07/09 08:15:17;;;;;;;7.68;1.92;;;24.60;89.80;;;;;;5056861;28;20138;-78
2022/07/09 08:17:44;;;;;;;6.38;1.88;;;24.80;86.50;;;;;;5056750;28;20037;-65
2022/07/09 08:20:10;;;;;;;3.78;1.77;;;24.70;86.30;;;;;;5056430;28;20040;-66
2022/07/09 08:22:36;;;;;;;5.47;1.63;;;24.70;86.60;;;;;;5056343;28;20129;-73
2022/07/09 08:25:04;;;;;;;5.60;1.60;;;25.00;89.30;;;;;;5056430;28;20488;-78
2022/07/09 08:27:29;;;;;;;6.00;1.70;;;25.20;87.90;;;;;;5056313;28;20036;-66
2022/07/09 08:29:55;;;;;;;7.47;1.95;;;25.00;88.70;;;;;;5056150;28;20041;-70
2022/07/09 08:32:21;;;;;;;5.07;1.70;;;25.00;86.50;;;;;;5056346;28;20029;-76
2022/07/09 08:34:47;;;;;;;9.45;2.30;;;24.80;85.70;;;;;;5056243;28;20033;-66
2022/07/09 08:37:12;;;;;;;6.55;2.13;;;25.40;88.50;;;;;;5056463;28;20075;-78
2022/07/09 08:39:38;;;;;;;3.65;1.67;;;24.80;83.50;;;;;;5056099;28;20032;-79
2022/07/09 08:42:09;;;;;;;4.50;1.73;;;25.50;88.60;;;;;;5056253;28;20171;-80
2022/07/09 08:44:42;;;;;;;4.60;1.80;;;25.60;87.90;;;;;;5055986;28;20049;-69
2022/07/09 08:47:11;;;;;;;10.43;1.85;;;26.10;86.00;;;;;;5056036;28;20094;-80
2022/07/09 08:49:37;;;;;;;6.30;1.95;;;26.40;88.70;;;;;;5056080;28;20056;-75
2022/07/09 08:52:05;;;;;;;6.03;1.90;;;26.40;89.20;;;;;;5056037;28;20511;-77
2022/07/09 08:54:33;;;;;;;7.75;2.35;;;26.30;85.90;;;;;;5056160;28;20037;-78
2022/07/09 08:56:59;;;;;;;3.95;1.85;;;26.00;83.60;;;;;;5055970;28;20480;-66
2022/07/09 08:59:24;;;;;;;8.73;1.83;;;25.70;85.20;;;;;;5055802;28;20040;-66
2022/07/09 09:01:50;;;;;;;6.47;2.05;;;25.90;85.00;;;;;;5055686;28;20044;-71
2022/07/09 09:04:17;;;;;;;6.20;1.92;;;26.40;85.90;;;;;;5055559;28;20128;-66
2022/07/09 09:06:43;;;;;;;3.72;1.83;;;25.90;82.10;;;;;;5055809;28;20547;-80
2022/07/09 09:09:10;;;;;;;7.40;2.00;;;25.20;83.60;;;;;;5055793;28;20045;-79
2022/07/09 09:11:37;;;;;;;3.45;1.88;;;24.90;81.80;;;;;;5055639;28;20029;-78
2022/07/09 09:14:03;;;;;;;9.43;1.60;;;25.00;84.20;;;;;;5055616;28;20123;-66
2022/07/09 09:16:29;;;;;;;3.15;1.50;;;24.80;85.60;;;;;;5055534;28;20037;-66
2022/07/09 09:18:56;;;;;;;4.35;1.35;;;25.30;84.80;;;;;;5055659;28;20052;-69
2022/07/09 09:21:26;;;;;;;8.10;2.40;;;25.20;83.60;;;;;;5066785;28;20511;-66
2022/07/09 09:23:53;;;;;;;6.00;1.90;;;24.60;84.00;;;;;;5075294;28;20084;-79
2022/07/09 09:26:24;;;;;;;5.03;1.50;;;24.90;85.70;;;;;;5075415;28;20033;-79
2022/07/09 09:28:52;;;;;;;5.65;1.55;;;24.60;85.50;;;;;;5075272;28;20044;-71
2022/07/09 09:31:26;;;;;;;2.80;1.33;;;24.70;82.40;;;;;;5074812;28;20044;-66
2022/07/09 09:33:54;;;;;;;5.18;1.77;;;24.60;85.30;;;;;;5075076;28;20094;-70
2022/07/09 09:36:31;;;;;;;9.07;1.67;;;24.50;83.30;;;;;;5074937;28;20036;-75
2022/07/09 09:39:25;;;;;;;3.28;1.55;;;24.70;84.60;;;;;;5074911;28;20492;-65
2022/07/09 09:41:56;;;;;;;4.32;1.60;;;24.40;82.40;;;;;;5075042;28;20032;-68
2022/07/09 09:44:29;;;;;;;7.30;2.00;;;24.60;84.70;;;;;;5074788;28;20048;-67
2022/07/09 09:46:56;;;;;;;5.57;1.50;;;25.20;86.30;;;;;;5075073;28;20037;-66
2022/07/09 09:49:22;;;;;;;3.38;1.55;;;25.20;83.80;;;;;;5074918;28;20419;-66
2022/07/09 09:51:56;;;;;;;7.10;2.13;;;25.30;84.60;;;;;;5074918;28;20024;-65
2022/07/09 09:54:22;;;;;;;3.75;1.45;;;25.10;83.60;;;;;;5075016;28;20123;-69
2022/07/09 09:56:49;;;;;;;6.85;1.73;;;25.30;83.40;;;;;;5074715;28;20042;-66
2022/07/09 09:59:16;;;;;;;5.65;1.48;;;24.90;83.50;;;;;;5074675;28;20040;-66
2022/07/09 10:01:43;;;;;;;9.98;1.98;;;24.70;85.00;;;;;;5074544;28;20569;-77
2022/07/09 10:04:10;;;;;;;4.07;1.55;;;24.40;83.50;;;;;;5074486;28;20423;-80
2022/07/09 10:06:36;;;;;;;4.07;1.73;;;24.40;83.70;;;;;;5074454;28;20051;-65
2022/07/09 10:09:07;;;;;;;6.95;1.75;;;24.70;85.40;;;;;;5074525;28;20511;-76
2022/07/09 10:11:46;;;;;;;5.65;1.90;;;25.00;85.30;;;;;;5074538;28;20044;-65
2022/07/09 10:14:30;;;;;;;5.30;1.60;;;24.90;84.30;;;;;;5074346;28;20492;-66
2022/07/09 10:16:56;;;;;;;5.00;1.65;;;24.50;86.80;;;;;;5074235;28;20042;-66
2022/07/09 10:19:30;;;;;;;5.50;1.40;;;25.00;85.00;;;;;;5074450;28;20127;-77
2022/07/09 10:21:57;;;;;;;6.35;1.73;;;24.70;85.10;;;;;;5074233;28;20037;-66
2022/07/09 10:24:27;;;;;;;4.97;1.70;;;24.80;86.50;;;;;;5074258;28;20082;-66
2022/07/09 10:27:06;;;;;;;5.10;1.60;;;25.00;85.70;;;;;;5074501;28;20090;-79
2022/07/09 10:29:32;;;;;;;4.30;1.42;;;25.20;84.30;;;;;;5074043;28;20119;-75
2022/07/09 10:31:58;;;;;;;4.75;1.50;;;26.40;89.30;;;;;;5074375;28;20040;-66
2022/07/09 10:34:42;;;;;;;5.15;1.50;;;25.50;83.80;;;;;;5073843;28;20044;-66
2022/07/09 10:37:08;;;;;;;2.70;1.23;;;24.70;79.90;;;;;;5074200;28;20029;-78
2022/07/09 10:39:34;;;;;;;5.00;1.10;;;24.40;80.40;;;;;;5074016;28;20055;-65
2022/07/09 10:42:05;;;;;;;6.22;1.42;;;24.00;80.20;;;;;;5073779;28;20444;-76
2022/07/09 10:44:35;;;;;;;5.03;1.48;;;23.70;80.40;;;;;;5073925;28;20106;-72
2022/07/09 10:47:02;;;;;;;5.97;1.77;;;23.60;79.10;;;;;;5074278;28;20457;-74
2022/07/09 10:49:28;;;;;;;5.10;1.85;;;24.00;79.50;;;;;;5074063;28;20119;-66
2022/07/09 10:51:58;;;;;;;5.53;1.38;;;24.50;81.60;;;;;;5074134;28;20036;-66
2022/07/09 10:54:24;;;;;;;3.97;1.60;;;24.80;81.60;;;;;;5073714;28;20049;-65
2022/07/09 10:56:51;;;;;;;2.13;1.30;;;24.70;80.00;;;;;;5073997;28;20035;-65
2022/07/09 10:59:20;;;;;;;3.95;1.25;;;25.30;81.50;;;;;;5074032;28;20437;-66
2022/07/09 11:01:46;;;;;;;4.78;1.42;;;25.20;79.60;;;;;;5073682;28;20404;-66
2022/07/09 11:04:12;;;;;;;2.88;1.50;;;25.30;78.50;;;;;;5073688;28;20082;-70
2022/07/09 11:06:47;;;;;;;3.20;1.65;;;25.00;78.20;;;;;;5073692;28;20044;-67
2022/07/09 11:09:16;;;;;;;5.43;1.67;;;25.00;80.10;;;;;;5073598;28;20036;-75
2022/07/09 11:11:43;;;;;;;4.18;1.30;;;25.00;79.80;;;;;;5073754;28;20135;-68
2022/07/09 11:14:12;;;;;;;6.30;1.35;;;24.90;80.30;;;;;;5073679;28;20408;-79
2022/07/09 11:16:38;;;;;;;2.92;1.42;;;25.20;81.70;;;;;;5073692;28;20040;-66
2022/07/09 11:19:17;;;;;;;8.93;1.63;;;25.30;79.80;;;;;;5073663;28;20036;-65
2022/07/09 11:21:43;;;;;;;4.15;1.35;;;25.00;80.30;;;;;;5073674;28;20049;-66
2022/07/09 11:24:17;;;;;;;3.08;1.55;;;25.50;79.50;;;;;;5073505;28;20594;-66
2022/07/09 11:26:43;;;;;;;5.32;1.77;;;25.10;79.30;;;;;;5073777;28;20577;-79
2022/07/09 11:29:10;;;;;;;6.50;2.00;;;25.50;81.00;;;;;;5073787;28;20395;-66
2022/07/09 11:31:36;;;;;;;3.35;1.40;;;25.40;81.70;;;;;;5073608;28;20166;-65
2022/07/09 11:34:12;;;;;;;4.13;1.45;;;25.40;81.80;;;;;;5073555;28;20123;-66
2022/07/09 11:36:40;;;;;;;7.47;1.50;;;25.20;80.60;;;;;;5073814;28;20129;-79
2022/07/09 11:39:06;;;;;;;6.25;1.27;;;25.40;81.30;;;;;;5073506;28;20044;-65
2022/07/09 11:41:45;;;;;;;2.72;1.23;;;25.40;78.60;;;;;;5073557;28;20028;-68
2022/07/09 11:44:18;;;;;;;2.45;1.30;;;24.90;78.40;;;;;;5058098;28;20045;-65
2022/07/09 11:46:44;;;;;;;4.22;1.40;;;25.00;78.20;;;;;;5056196;28;20064;-79
2022/07/09 11:49:15;;;;;;;7.43;1.92;;;25.10;78.70;;;;;;5057199;28;20500;-79
2022/07/09 11:51:41;;;;;;;3.75;1.50;;;25.10;79.40;;;;;;5057199;28;20037;-71
2022/07/09 11:54:07;;;;;;;8.77;1.60;;;25.20;78.60;;;;;;5057357;28;20424;-66
2022/07/09 11:56:47;;;;;;;1.75;1.20;;;25.00;76.30;;;;;;5057065;28;20493;-79
2022/07/09 11:59:13;;;;;;;5.97;1.63;;;25.00;77.20;;;;;;5057058;28;20053;-69
2022/07/09 12:01:39;;;;;;;4.10;1.45;;;25.40;77.50;;;;;;5057090;28;20029;-66
2022/07/09 12:04:05;;;;;;;3.80;1.35;;;25.30;76.30;;;;;;5056879;28;20419;-78
2022/07/09 12:06:32;;;;;;;4.38;1.63;;;25.80;79.60;;;;;;5056890;28;20029;-72
2022/07/09 12:09:06;;;;;;;5.20;1.90;;;26.70;79.00;;;;;;5056804;28;20041;-66
2022/07/09 12:11:32;;;;;;;4.25;1.55;;;26.70;75.90;;;;;;5056816;28;20378;-77
2022/07/09 12:13:58;;;;;;;2.53;1.52;;;26.40;77.90;;;;;;5056778;28;20043;-66
2022/07/09 12:16:24;;;;;;;3.20;1.30;;;26.50;78.70;;;;;;5056793;28;20124;-80
2022/07/09 12:18:50;;;;;;;5.55;2.05;;;25.90;79.20;;;;;;5056703;28;20051;-66
2022/07/09 12:21:15;;;;;;;11.57;1.60;;;25.60;78.70;;;;;;5056634;28;20039;-69
2022/07/09 12:23:41;;;;;;;8.32;1.88;;;25.70;77.50;;;;;;5056963;28;20049;-66
2022/07/09 12:26:07;;;;;;;3.55;1.60;;;25.80;79.50;;;;;;5056343;28;20170;-66
2022/07/09 12:28:33;;;;;;;3.42;1.52;;;25.60;78.30;;;;;;5056560;28;20131;-66
2022/07/09 12:30:58;;;;;;;2.78;1.55;;;26.10;81.30;;;;;;5056289;28;20127;-79
2022/07/09 12:33:24;;;;;;;3.08;1.92;;;26.10;79.80;;;;;;5056604;28;20116;-80
2022/07/09 12:35:50;;;;;;;2.35;1.77;;;25.90;80.70;;;;;;5056506;28;20069;-66
2022/07/09 12:38:15;;;;;;;3.97;1.70;;;25.60;79.50;;;;;;5056268;28;20485;-79
2022/07/09 12:40:41;;;;;;;4.38;1.50;;;25.60;80.60;;;;;;5055888;28;20045;-76
2022/07/09 12:43:07;;;;;;;6.55;1.83;;;26.00;82.30;;;;;;5055907;28;20051;-65